Time;durP1;ratioP1;P1;durP2;ratioP2;P2;SDS_P1;SDS_P2;PMS_P1;PMS_P2;Temp;Humidity;BMP_temperature;BMP_pressure;BME280_temperature;BME280_humidity;BME280_pressure;Samples;Min_cycle;Max_cycle;Signal;HPM_P1;HPM_P2
2023/05/11 00:02:47;;;;;;;25.55;17.88;;;;;;;-146.18;100.00;67994.34;10244404;28;20089;-74
2023/05/11 00:07:44;;;;;;;24.05;17.15;;;;;;;-146.18;100.00;67994.34;10220103;28;20112;-74
2023/05/11 00:12:40;;;;;;;26.00;17.58;;;;;;;-146.18;100.00;67994.34;10239759;28;20470;-73
2023/05/11 00:17:37;;;;;;;22.30;16.02;;;;;;;-146.18;100.00;67994.34;10211072;28;20423;-73
2023/05/11 00:22:33;;;;;;;26.17;17.85;;;;;;;-146.18;100.00;67994.34;10234285;28;20136;-70
2023/05/11 00:27:30;;;;;;;24.95;17.38;;;;;;;-146.18;100.00;67994.34;10224731;28;20045;-71
2023/05/11 00:32:28;;;;;;;20.13;15.40;;;;;;;-146.18;100.00;67994.34;10239920;28;20057;-74
2023/05/11 00:37:24;;;;;;;22.92;17.27;;;;;;;-146.18;100.00;67994.34;10226730;28;21547;-74
2023/05/11 00:42:21;;;;;;;21.33;16.20;;;;;;;-146.18;100.00;67994.34;10233741;28;20049;-74
2023/05/11 00:47:18;;;;;;;24.33;16.10;;;;;;;-146.18;100.00;67994.34;10225152;28;20053;-74
2023/05/11 00:52:14;;;;;;;22.35;15.10;;;;;;;-146.18;100.00;67994.34;10234582;28;20128;-74
2023/05/11 00:57:10;;;;;;;25.63;16.40;;;;;;;-146.18;100.00;67994.34;10230558;28;20104;-74
2023/05/11 01:02:07;;;;;;;21.98;15.80;;;;;;;-146.18;100.00;67994.34;10232374;28;20507;-75
2023/05/11 01:07:19;;;;;;;23.08;16.90;;;;;;;-146.18;100.00;67994.34;10219524;28;20103;-73
2023/05/11 01:12:29;;;;;;;25.10;17.60;;;;;;;-146.18;100.00;67994.34;10227512;28;20519;-73
2023/05/11 01:18:09;;;;;;;24.35;18.35;;;;;;;-146.18;100.00;67994.34;10231394;28;20483;-73
2023/05/11 01:23:17;;;;;;;24.77;16.98;;;;;;;-146.18;100.00;67994.34;10219824;28;20052;-73
2023/05/11 01:28:34;;;;;;;27.73;18.55;;;;;;;-146.18;100.00;67994.34;10234526;28;20076;-73
2023/05/11 01:33:34;;;;;;;22.13;16.00;;;;;;;-146.18;100.00;67994.34;10217865;28;20064;-73
2023/05/11 01:38:33;;;;;;;27.20;18.17;;;;;;;-146.18;100.00;67994.34;10229768;28;20554;-75
2023/05/11 01:43:34;;;;;;;28.55;17.50;;;;;;;-146.18;100.00;67994.34;10227978;28;20053;-75
2023/05/11 01:48:34;;;;;;;28.42;18.25;;;;;;;-146.18;100.00;67994.34;10214858;28;20052;-72
2023/05/11 01:53:35;;;;;;;20.65;15.90;;;;;;;-146.18;100.00;67994.34;10223561;28;20054;-73
2023/05/11 01:58:35;;;;;;;20.33;15.37;;;;;;;-146.18;100.00;67994.34;10223596;28;20053;-72
2023/05/11 02:03:34;;;;;;;16.55;11.90;;;;;;;-146.18;100.00;67994.34;10233742;28;20050;-72
2023/05/11 02:08:31;;;;;;;14.25;12.02;;;;;;;-146.18;100.00;67994.34;10219579;28;20050;-72
2023/05/11 02:13:29;;;;;;;15.95;12.30;;;;;;;-146.18;100.00;67994.34;10228956;28;20500;-70
2023/05/11 02:18:28;;;;;;;14.98;11.73;;;;;;;-146.18;100.00;67994.34;10237798;28;20459;-70
2023/05/11 02:23:26;;;;;;;18.17;12.93;;;;;;;-146.18;100.00;67994.34;10235210;28;20064;-68
2023/05/11 02:28:23;;;;;;;16.67;12.63;;;;;;;-146.18;100.00;67994.34;10231841;28;20049;-69
2023/05/11 02:33:24;;;;;;;16.60;12.90;;;;;;;-146.18;100.00;67994.34;10231260;28;20065;-69
2023/05/11 02:38:28;;;;;;;15.57;12.30;;;;;;;-146.18;100.00;67994.34;10234578;28;20054;-73
2023/05/11 02:43:31;;;;;;;19.23;13.57;;;;;;;-146.18;100.00;67994.34;10231035;28;20092;-73
2023/05/11 02:48:31;;;;;;;17.85;13.95;;;;;;;-146.18;100.00;67994.34;10236560;28;20095;-74
2023/05/11 02:53:28;;;;;;;17.85;13.63;;;;;;;-146.18;100.00;67994.34;10232627;28;20062;-74
2023/05/11 02:58:29;;;;;;;18.17;14.10;;;;;;;-146.18;100.00;67994.34;10229557;28;20464;-74
2023/05/11 03:03:26;;;;;;;18.08;14.25;;;;;;;-146.18;100.00;67994.34;10237191;28;20412;-75
2023/05/11 03:08:23;;;;;;;20.33;14.25;;;;;;;-146.18;100.00;67994.34;10228434;28;20046;-75
2023/05/11 03:13:22;;;;;;;20.45;14.90;;;;;;;-146.18;100.00;67994.34;10239006;28;20061;-75
2023/05/11 03:18:20;;;;;;;23.30;16.83;;;;;;;-146.18;100.00;67994.34;10232214;28;20576;-75
2023/05/11 03:23:18;;;;;;;22.40;15.50;;;;;;;-146.18;100.00;67994.34;10231999;28;20129;-72
2023/05/11 03:28:16;;;;;;;19.80;15.40;;;;;;;-146.18;100.00;67994.34;10237974;28;20495;-73
2023/05/11 03:33:15;;;;;;;25.75;17.63;;;;;;;-146.18;100.00;67994.34;10232348;28;20131;-73
2023/05/11 03:38:14;;;;;;;24.27;16.83;;;;;;;-146.18;100.00;67994.34;10238114;28;20081;-72
2023/05/11 03:43:13;;;;;;;23.02;17.00;;;;;;;-146.18;100.00;67994.34;10217497;28;20050;-75
2023/05/11 03:48:13;;;;;;;22.48;16.35;;;;;;;-146.18;100.00;67994.34;10227153;28;20053;-74
2023/05/11 03:53:10;;;;;;;27.67;18.65;;;;;;;-146.18;100.00;67994.34;10232904;28;20067;-73
2023/05/11 03:58:08;;;;;;;30.75;19.58;;;;;;;-146.18;100.00;67994.34;10239618;28;20057;-71
2023/05/11 04:03:05;;;;;;;28.50;19.30;;;;;;;-146.18;100.00;67994.34;10233297;28;20623;-71
2023/05/11 04:08:03;;;;;;;27.55;17.83;;;;;;;-146.18;100.00;67994.34;10236465;28;20049;-71
2023/05/11 04:12:59;;;;;;;30.77;20.55;;;;;;;-146.18;100.00;67994.34;10225112;28;20055;-70
2023/05/11 04:17:56;;;;;;;27.92;17.27;;;;;;;-146.18;100.00;67994.34;10228982;28;20422;-71
2023/05/11 04:23:21;;;;;;;31.52;21.77;;;;;;;-146.18;100.00;67994.34;10222523;28;20648;-80
2023/05/11 04:29:35;;;;;;;24.48;17.55;;;;;;;-146.18;100.00;67994.34;10015901;29;20668;-81
2023/05/11 04:47:04;;;;;;;23.95;17.73;;;;;;;-146.18;100.00;67994.34;10027580;29;20052;-74
2023/05/11 04:52:01;;;;;;;23.45;17.63;;;;;;;-146.18;100.00;67994.34;10131648;28;20053;-76
2023/05/11 04:57:01;;;;;;;20.00;15.80;;;;;;;-146.18;100.00;67994.34;10221003;28;20132;-76
2023/05/11 05:01:59;;;;;;;23.48;17.58;;;;;;;-146.18;100.00;67994.34;10206710;28;20053;-75
2023/05/11 05:06:57;;;;;;;20.20;15.98;;;;;;;-146.18;100.00;67994.34;10211261;28;20057;-76
2023/05/11 05:11:57;;;;;;;20.95;16.40;;;;;;;-146.18;100.00;67994.34;10195603;28;20136;-76
2023/05/11 05:16:54;;;;;;;18.42;15.27;;;;;;;-146.18;100.00;67994.34;10206545;28;20535;-76
2023/05/11 05:21:51;;;;;;;24.35;17.77;;;;;;;-146.18;100.00;67994.34;10204458;28;20061;-78
2023/05/11 05:27:07;;;;;;;19.90;17.25;;;;;;;-146.18;100.00;67994.34;10213483;28;20083;-77
2023/05/11 05:32:53;;;;;;;25.75;19.88;;;;;;;-146.18;100.00;67994.34;10215591;28;20542;-74
2023/05/11 05:37:50;;;;;;;23.35;18.40;;;;;;;-146.18;100.00;67994.34;10188760;28;20422;-74
2023/05/11 05:43:00;;;;;;;23.38;19.15;;;;;;;-146.18;100.00;67994.34;10197013;28;20051;-73
2023/05/11 05:47:59;;;;;;;28.77;19.88;;;;;;;-146.18;100.00;67994.34;10190457;28;20054;-77
2023/05/11 05:52:56;;;;;;;16.17;13.85;;;;;;;-146.18;100.00;67994.34;10216382;28;20049;-77
2023/05/11 05:58:07;;;;;;;15.52;13.77;;;;;;;-146.18;100.00;67994.34;10201952;28;20132;-76
2023/05/11 06:03:10;;;;;;;16.67;14.05;;;;;;;-146.18;100.00;67994.34;10218484;28;20052;-76
2023/05/11 06:08:07;;;;;;;16.75;13.23;;;;;;;-146.18;100.00;67994.34;10204125;28;20061;-73
2023/05/11 06:13:08;;;;;;;16.67;13.93;;;;;;;-146.18;100.00;67994.34;10206100;28;20542;-73
2023/05/11 06:18:05;;;;;;;18.75;14.27;;;;;;;-146.18;100.00;67994.34;10214359;28;20057;-73
2023/05/11 06:23:04;;;;;;;17.20;12.15;;;;;;;-146.18;100.00;67994.34;10202548;28;20053;-73
2023/05/11 06:28:01;;;;;;;21.27;16.02;;;;;;;-146.18;100.00;67994.34;10199437;28;20075;-72
2023/05/11 06:34:10;;;;;;;19.70;14.13;;;;;;;-146.18;100.00;67994.34;10203496;28;20056;-72
2023/05/11 06:46:05;;;;;;;21.02;14.80;;;;;;;-146.18;100.00;67994.34;10163063;28;20543;-73
2023/05/11 06:51:17;;;;;;;20.75;15.07;;;;;;;-146.18;100.00;67994.34;10214924;28;20519;-73
2023/05/11 06:56:18;;;;;;;24.20;15.30;;;;;;;-146.18;100.00;67994.34;10223059;28;20053;-73
2023/05/11 07:01:16;;;;;;;23.13;15.57;;;;;;;-146.18;100.00;67994.34;10207812;28;20050;-73
2023/05/11 07:06:49;;;;;;;25.30;16.67;;;;;;;-146.18;100.00;67994.34;10178792;28;20057;-73
2023/05/11 07:12:05;;;;;;;21.92;16.63;;;;;;;-146.18;100.00;67994.34;10227530;28;20057;-73
2023/05/11 07:17:25;;;;;;;23.10;15.77;;;;;;;-146.18;100.00;67994.34;10212910;28;20049;-73
2023/05/11 07:22:37;;;;;;;23.92;17.00;;;;;;;-146.18;100.00;67994.34;10215331;28;20064;-73
2023/05/11 07:28:38;;;;;;;22.90;16.15;;;;;;;-146.18;100.00;67994.34;10198489;28;20133;-73
2023/05/11 07:34:05;;;;;;;25.05;17.38;;;;;;;-146.18;100.00;67994.34;10179398;28;20539;-72
2023/05/11 07:39:11;;;;;;;27.55;18.38;;;;;;;-146.18;100.00;67994.34;10200532;28;20057;-73
2023/05/11 07:44:16;;;;;;;28.20;17.92;;;;;;;-146.18;100.00;67994.34;10204606;28;20120;-73
2023/05/11 07:50:07;;;;;;;22.08;15.60;;;;;;;-146.18;100.00;67994.34;10193947;28;20232;-73
2023/05/11 07:55:06;;;;;;;24.70;17.50;;;;;;;-146.18;100.00;67994.34;10197532;28;20072;-74
2023/05/11 08:00:04;;;;;;;23.23;16.52;;;;;;;-146.18;100.00;67994.34;10225682;28;20097;-75
2023/05/11 08:05:07;;;;;;;24.90;16.67;;;;;;;-146.18;100.00;67994.34;10204665;28;20079;-73
2023/05/11 08:10:05;;;;;;;25.80;19.25;;;;;;;-146.18;100.00;67994.34;10202409;28;20107;-73
2023/05/11 08:15:05;;;;;;;20.27;15.85;;;;;;;-146.18;100.00;67994.34;10199732;28;20060;-73
2023/05/11 08:20:05;;;;;;;22.25;17.75;;;;;;;-146.18;100.00;67994.34;10202608;28;20673;-72
2023/05/11 08:25:02;;;;;;;25.75;18.45;;;;;;;-146.18;100.00;67994.34;10208398;28;20057;-72
2023/05/11 08:30:00;;;;;;;22.17;17.60;;;;;;;-146.18;100.00;67994.34;10206054;28;20049;-73
2023/05/11 08:34:58;;;;;;;20.52;16.27;;;;;;;-146.18;100.00;67994.34;10203160;28;20099;-72
2023/05/11 08:39:55;;;;;;;21.65;16.92;;;;;;;-146.18;100.00;67994.34;10216510;28;20483;-73
2023/05/11 08:45:26;;;;;;;28.05;18.67;;;;;;;-146.18;100.00;67994.34;10193141;28;20515;-72
2023/05/11 08:51:02;;;;;;;24.77;18.73;;;;;;;-146.18;100.00;67994.34;10215914;28;20654;-72
2023/05/11 08:56:05;;;;;;;23.27;17.52;;;;;;;-146.18;100.00;67994.34;10206149;28;20050;-73
2023/05/11 09:01:24;;;;;;;24.13;17.38;;;;;;;-146.18;100.00;67994.34;10212191;28;20061;-73
2023/05/11 09:12:56;;;;;;;23.05;15.82;;;;;;;-146.18;100.00;67994.34;10121126;28;20531;-72
2023/05/11 09:30:02;;;;;;;27.95;17.73;;;;;;;-146.18;100.00;67994.34;10218343;28;19924;-72
2023/05/11 09:36:16;;;;;;;22.65;16.00;;;;;;;-146.18;100.00;67994.34;10203862;28;20058;-71
2023/05/11 09:41:52;;;;;;;27.77;18.55;;;;;;;-146.18;100.00;67994.34;10106566;28;20050;-72
2023/05/11 09:47:08;;;;;;;26.80;18.42;;;;;;;-146.18;100.00;67994.34;10192794;28;20054;-73
2023/05/11 09:52:06;;;;;;;25.85;18.27;;;;;;;-146.18;100.00;67994.34;10179639;28;20511;-72
2023/05/11 09:57:03;;;;;;;26.48;17.98;;;;;;;-146.18;100.00;67994.34;10194663;28;20060;-72
2023/05/11 10:02:32;;;;;;;29.77;19.00;;;;;;;-146.18;100.00;67994.34;10207134;28;20112;-72
2023/05/11 10:07:35;;;;;;;22.92;16.38;;;;;;;-146.18;100.00;67994.34;10194501;28;20052;-72
2023/05/11 10:12:50;;;;;;;24.63;16.77;;;;;;;-146.18;100.00;67994.34;10200837;28;20069;-72
2023/05/11 10:17:52;;;;;;;22.42;16.83;;;;;;;-146.18;100.00;67994.34;10207376;28;20049;-71
2023/05/11 10:22:54;;;;;;;23.60;17.65;;;;;;;-146.18;100.00;67994.34;10206185;28;20104;-72
2023/05/11 10:33:56;;;;;;;20.20;16.25;;;;;;;-146.18;100.00;67994.34;10217563;28;20045;-72
2023/05/11 10:38:54;;;;;;;21.02;16.08;;;;;;;-146.18;100.00;67994.34;10208269;28;20442;-72
2023/05/11 10:44:20;;;;;;;17.38;14.75;;;;;;;-146.18;100.00;67994.34;10208973;28;20651;-73
2023/05/11 10:49:41;;;;;;;18.45;14.95;;;;;;;-146.18;100.00;67994.34;10214042;28;20168;-73
2023/05/11 10:54:49;;;;;;;17.42;15.18;;;;;;;-146.18;100.00;67994.34;10225262;28;20100;-73
2023/05/11 11:00:29;;;;;;;17.30;14.15;;;;;;;-146.18;100.00;67994.34;10210904;28;20064;-73
2023/05/11 11:06:05;;;;;;;16.45;14.40;;;;;;;-146.18;100.00;67994.34;10219080;28;20045;-73
2023/05/11 11:25:20;;;;;;;15.77;14.10;;;;;;;-146.18;100.00;67994.34;10182320;28;20026;-74
2023/05/11 11:37:32;;;;;;;17.30;14.68;;;;;;;-146.18;100.00;67994.34;10170162;28;20125;-74
2023/05/11 11:43:31;;;;;;;15.25;13.90;;;;;;;-146.18;100.00;67994.34;10155523;28;20050;-74
2023/05/11 11:48:41;;;;;;;15.68;14.18;;;;;;;-146.18;100.00;67994.34;10075496;28;20923;-74
2023/05/11 11:54:00;;;;;;;;;;;;;;;-146.18;100.00;67994.34;10198130;28;20451;-74
2023/05/11 11:59:59;;;;;;;15.55;13.95;;;;;;;-146.18;100.00;67994.34;10213061;28;19932;-74
2023/05/11 12:05:35;;;;;;;14.70;13.20;;;;;;;-146.18;100.00;67994.34;10203889;28;20053;-72
2023/05/11 12:10:38;;;;;;;14.05;12.65;;;;;;;-146.18;100.00;67994.34;10221944;28;20053;-72
2023/05/11 12:15:36;;;;;;;16.20;12.88;;;;;;;-146.18;100.00;67994.34;10210864;28;20073;-73
2023/05/11 12:20:39;;;;;;;14.23;12.82;;;;;;;-146.18;100.00;67994.34;10180571;28;20057;-73
2023/05/11 12:33:10;;;;;;;13.20;11.90;;;;;;;-146.18;100.00;67994.34;10028442;29;20039;-73
2023/05/11 12:39:27;;;;;;;12.35;11.05;;;;;;;-146.18;100.00;67994.34;10023088;29;20047;-73
2023/05/11 12:52:18;;;;;;;13.00;11.70;;;;;;;-146.18;100.00;67994.34;9909078;29;20045;-77
2023/05/11 13:04:42;;;;;;;12.93;11.52;;;;;;;-146.18;100.00;67994.34;9873543;29;20074;-78
2023/05/11 13:30:08;;;;;;;13.52;11.68;;;;;;;-146.18;100.00;67994.34;10067130;28;20110;-78
2023/05/11 13:42:21;;;;;;;13.02;11.75;;;;;;;-146.18;100.00;67994.34;10041698;28;20135;-77
2023/05/11 14:14:19;;;;;;;12.60;11.38;;;;;;;-146.18;100.00;67994.34;9927084;29;20048;-79
2023/05/11 14:21:07;;;;;;;13.35;12.02;;;;;;;-146.18;100.00;67994.34;9808342;29;20046;-78
2023/05/11 14:26:53;;;;;;;13.68;12.23;;;;;;;-146.18;100.00;67994.34;9799053;29;20084;-77
2023/05/11 14:32:20;;;;;;;14.70;13.20;;;;;;;-146.18;100.00;67994.34;10182131;28;20050;-77
2023/05/11 14:38:03;;;;;;;13.70;12.40;;;;;;;-146.18;100.00;67994.34;10231333;28;20053;-77
2023/05/11 14:43:48;;;;;;;13.27;11.98;;;;;;;-146.18;100.00;67994.34;10219948;28;20084;-77
2023/05/11 14:49:44;;;;;;;14.23;12.80;;;;;;;-146.18;100.00;67994.34;10224853;28;20138;-78
2023/05/11 14:56:16;;;;;;;12.40;11.20;;;;;;;-146.18;100.00;67994.34;10210585;28;20148;-78
2023/05/11 15:01:56;;;;;;;15.60;13.70;;;;;;;-146.18;100.00;67994.34;10150913;28;20076;-77
2023/05/11 15:07:22;;;;;;;14.27;12.85;;;;;;;-146.18;100.00;67994.34;10158769;28;20054;-76
2023/05/11 15:13:24;;;;;;;13.10;11.88;;;;;;;-146.18;100.00;67994.34;10143878;28;20057;-77
2023/05/11 15:18:45;;;;;;;14.80;13.27;;;;;;;-146.18;100.00;67994.34;10011508;29;20052;-78
2023/05/11 15:24:10;;;;;;;14.73;13.27;;;;;;;-146.18;100.00;67994.34;9984869;28;20104;-77
2023/05/11 15:29:27;;;;;;;15.52;14.10;;;;;;;-146.18;100.00;67994.34;9998953;29;20097;-77
2023/05/11 15:35:28;;;;;;;15.20;13.73;;;;;;;-146.18;100.00;67994.34;10066197;28;20199;-78
2023/05/11 15:41:04;;;;;;;14.80;13.07;;;;;;;-146.18;100.00;67994.34;10022371;28;20062;-77
2023/05/11 15:46:04;;;;;;;13.32;12.00;;;;;;;-146.18;100.00;67994.34;10056856;28;20044;-77
2023/05/11 15:51:01;;;;;;;13.90;12.55;;;;;;;-146.18;100.00;67994.34;10060895;28;20106;-78
2023/05/11 15:56:00;;;;;;;14.95;13.55;;;;;;;-146.18;100.00;67994.34;10208238;28;20128;-76
2023/05/11 16:13:19;;;;;;;15.10;13.68;;;;;;;-146.18;100.00;67994.34;10117261;28;20054;-77
2023/05/11 16:18:55;;;;;;;12.25;11.13;;;;;;;-146.18;100.00;67994.34;10142726;28;20058;-78
2023/05/11 16:25:00;;;;;;;19.75;15.48;;;;;;;-146.18;100.00;67994.34;10121525;28;20058;-77
2023/05/11 16:37:50;;;;;;;15.65;14.05;;;;;;;-146.18;100.00;67994.34;10170044;28;20038;-77
2023/05/11 16:49:39;;;;;;;17.02;15.23;;;;;;;-146.18;100.00;67994.34;10166722;28;20138;-76
2023/05/11 17:00:27;;;;;;;16.98;15.32;;;;;;;-146.18;100.00;67994.34;10183671;28;20037;-75
2023/05/11 17:05:53;;;;;;;16.77;15.07;;;;;;;-146.18;100.00;67994.34;10173360;28;20049;-77
2023/05/11 17:10:54;;;;;;;17.83;15.93;;;;;;;-146.18;100.00;67994.34;10202018;28;20057;-77
2023/05/11 17:16:03;;;;;;;19.13;16.23;;;;;;;-146.18;100.00;67994.34;10206170;28;20496;-79
2023/05/11 17:21:00;;;;;;;24.88;17.20;;;;;;;-146.18;100.00;67994.34;10228215;28;21193;-85
2023/05/11 17:25:57;;;;;;;18.30;16.38;;;;;;;-146.18;100.00;67994.34;10227042;28;20819;-83
2023/05/11 17:30:53;;;;;;;17.98;14.43;;;;;;;-146.18;100.00;67994.34;10213778;28;20077;-81
2023/05/11 17:35:50;;;;;;;16.88;14.85;;;;;;;-146.18;100.00;67994.34;10218142;28;20053;-81
2023/05/11 17:40:46;;;;;;;17.10;15.38;;;;;;;-146.18;100.00;67994.34;10227567;28;20071;-79
2023/05/11 17:45:45;;;;;;;18.73;16.80;;;;;;;-146.18;100.00;67994.34;10228395;28;20553;-81
2023/05/11 17:50:48;;;;;;;21.17;17.70;;;;;;;-146.18;100.00;67994.34;10238890;28;20045;-81
2023/05/11 17:55:45;;;;;;;21.00;18.08;;;;;;;-146.18;100.00;67994.34;10215057;28;20050;-74
2023/05/11 18:00:44;;;;;;;19.92;17.83;;;;;;;-146.18;100.00;67994.34;10230207;28;20045;-74
2023/05/11 18:05:44;;;;;;;20.92;17.35;;;;;;;-146.18;100.00;67994.34;10217297;28;20045;-74
2023/05/11 18:10:44;;;;;;;20.38;18.35;;;;;;;-146.18;100.00;67994.34;10226925;28;20048;-74
2023/05/11 18:15:42;;;;;;;19.08;17.17;;;;;;;-146.18;100.00;67994.34;10215644;28;20094;-74
2023/05/11 18:20:38;;;;;;;19.30;17.25;;;;;;;-146.18;100.00;67994.34;10225145;28;20042;-73
2023/05/11 18:25:35;;;;;;;23.90;17.92;;;;;;;-146.18;100.00;67994.34;10215435;28;20416;-74
2023/05/11 18:30:32;;;;;;;21.48;17.35;;;;;;;-146.18;100.00;67994.34;10222425;28;20049;-73
2023/05/11 18:35:29;;;;;;;18.38;16.58;;;;;;;-146.18;100.00;67994.34;10216263;28;20050;-74
2023/05/11 18:40:26;;;;;;;17.02;15.23;;;;;;;-146.18;100.00;67994.34;10224044;28;20100;-73
2023/05/11 18:45:22;;;;;;;16.40;14.75;;;;;;;-146.18;100.00;67994.34;10221939;28;20053;-73
2023/05/11 18:50:19;;;;;;;16.70;14.95;;;;;;;-146.18;100.00;67994.34;10222659;28;20104;-78
2023/05/11 18:55:16;;;;;;;18.00;16.30;;;;;;;-146.18;100.00;67994.34;10202058;28;20136;-81
2023/05/11 19:00:13;;;;;;;16.90;15.18;;;;;;;-146.18;100.00;67994.34;10237777;28;20617;-80
2023/05/11 19:05:09;;;;;;;16.10;14.63;;;;;;;-146.18;100.00;67994.34;10215761;28;20064;-79
2023/05/11 19:10:07;;;;;;;15.73;14.23;;;;;;;-146.18;100.00;67994.34;10232605;28;20088;-75
2023/05/11 19:15:04;;;;;;;15.20;13.80;;;;;;;-146.18;100.00;67994.34;10229627;28;20046;-74
2023/05/11 19:20:02;;;;;;;15.50;14.00;;;;;;;-146.18;100.00;67994.34;10206072;28;20057;-70
2023/05/11 19:25:06;;;;;;;14.77;13.38;;;;;;;-146.18;100.00;67994.34;10225509;28;20049;-72
2023/05/11 19:30:03;;;;;;;14.13;12.73;;;;;;;-146.18;100.00;67994.34;10204792;28;20064;-65
2023/05/11 19:35:00;;;;;;;15.68;14.23;;;;;;;-146.18;100.00;67994.34;10235412;28;20506;-68
2023/05/11 19:39:57;;;;;;;15.77;14.15;;;;;;;-146.18;100.00;67994.34;10229995;28;20061;-68
2023/05/11 19:45:14;;;;;;;14.73;13.23;;;;;;;-146.18;100.00;67994.34;10213195;28;20053;-66
2023/05/11 19:50:13;;;;;;;14.38;13.02;;;;;;;-146.18;100.00;67994.34;10223216;28;20060;-67
2023/05/11 19:55:10;;;;;;;16.02;14.00;;;;;;;-146.18;100.00;67994.34;10231790;28;20080;-67
2023/05/11 20:00:06;;;;;;;14.02;12.60;;;;;;;-146.18;100.00;67994.34;10222441;28;20049;-68
2023/05/11 20:05:03;;;;;;;13.70;12.40;;;;;;;-146.18;100.00;67994.34;10228876;28;20056;-69
2023/05/11 20:10:00;;;;;;;14.75;13.23;;;;;;;-146.18;100.00;67994.34;10231532;28;20045;-67
2023/05/11 20:14:56;;;;;;;14.43;12.98;;;;;;;-146.18;100.00;67994.34;10225790;28;20045;-68
2023/05/11 20:19:52;;;;;;;16.42;13.30;;;;;;;-146.18;100.00;67994.34;10234884;28;20068;-67
2023/05/11 20:24:49;;;;;;;12.80;11.65;;;;;;;-146.18;100.00;67994.34;10233743;28;20044;-68
2023/05/11 20:29:45;;;;;;;12.05;10.93;;;;;;;-146.18;100.00;67994.34;10230404;28;20042;-68
2023/05/11 20:34:42;;;;;;;12.60;9.98;;;;;;;-146.18;100.00;67994.34;10228041;28;20049;-67
2023/05/11 20:39:39;;;;;;;10.32;9.18;;;;;;;-146.18;100.00;67994.34;10238945;28;20076;-67
2023/05/11 20:44:35;;;;;;;10.93;9.82;;;;;;;-146.18;100.00;67994.34;10228353;28;20091;-67
2023/05/11 20:49:32;;;;;;;9.82;8.68;;;;;;;-146.18;100.00;67994.34;10227707;28;20133;-67
2023/05/11 20:54:35;;;;;;;10.55;8.38;;;;;;;-146.18;100.00;67994.34;10225483;28;20046;-68
2023/05/11 20:59:31;;;;;;;9.82;8.82;;;;;;;-146.18;100.00;67994.34;10233762;28;20140;-68
2023/05/11 21:04:31;;;;;;;8.80;7.95;;;;;;;-146.18;100.00;67994.34;10217701;28;20052;-67
2023/05/11 21:09:27;;;;;;;8.95;8.15;;;;;;;-146.18;100.00;67994.34;10232140;28;20053;-66
2023/05/11 21:14:24;;;;;;;8.80;7.97;;;;;;;-146.18;100.00;67994.34;10227417;28;20054;-66
2023/05/11 21:19:20;;;;;;;8.32;7.63;;;;;;;-146.18;100.00;67994.34;10228472;28;20064;-66
2023/05/11 21:24:17;;;;;;;9.52;8.52;;;;;;;-146.18;100.00;67994.34;10231928;28;20046;-67
2023/05/11 21:29:14;;;;;;;10.25;8.10;;;;;;;-146.18;100.00;67994.34;10221344;28;20053;-68
2023/05/11 21:34:10;;;;;;;12.00;9.02;;;;;;;-146.18;100.00;67994.34;10231091;28;20045;-68
2023/05/11 21:39:07;;;;;;;9.00;8.10;;;;;;;-146.18;100.00;67994.34;10227587;28;20052;-67
2023/05/11 21:44:06;;;;;;;8.75;7.95;;;;;;;-146.18;100.00;67994.34;10220042;28;20569;-69
2023/05/11 21:49:03;;;;;;;8.88;7.97;;;;;;;-146.18;100.00;67994.34;10225330;28;20049;-68
2023/05/11 21:53:59;;;;;;;8.68;7.47;;;;;;;-146.18;100.00;67994.34;10226298;28;20045;-67
2023/05/11 21:58:55;;;;;;;10.70;7.45;;;;;;;-146.18;100.00;67994.34;10227959;28;20076;-66
2023/05/11 22:03:52;;;;;;;8.90;7.50;;;;;;;-146.18;100.00;67994.34;10227995;28;20072;-68
2023/05/11 22:08:48;;;;;;;10.70;8.20;;;;;;;-146.18;100.00;67994.34;10232918;28;20141;-68
2023/05/11 22:13:45;;;;;;;9.15;8.25;;;;;;;-146.18;100.00;67994.34;10212010;28;20599;-69
2023/05/11 22:18:41;;;;;;;11.88;8.00;;;;;;;-146.18;100.00;67994.34;10224287;28;20077;-68
2023/05/11 22:23:42;;;;;;;9.52;8.43;;;;;;;-146.18;100.00;67994.34;10206614;28;20431;-68
2023/05/11 22:28:38;;;;;;;10.30;8.98;;;;;;;-146.18;100.00;67994.34;10223175;28;20081;-67
2023/05/11 22:33:35;;;;;;;9.73;8.07;;;;;;;-146.18;100.00;67994.34;10232496;28;20042;-67
2023/05/11 22:38:33;;;;;;;8.93;8.10;;;;;;;-146.18;100.00;67994.34;10231825;28;20128;-66
2023/05/11 22:43:29;;;;;;;9.07;8.18;;;;;;;-146.18;100.00;67994.34;10232381;28;20041;-66
2023/05/11 22:48:25;;;;;;;9.25;8.30;;;;;;;-146.18;100.00;67994.34;10228636;28;20080;-68
2023/05/11 22:53:22;;;;;;;17.45;9.25;;;;;;;-146.18;100.00;67994.34;10217126;28;20048;-68
2023/05/11 22:58:18;;;;;;;10.23;9.18;;;;;;;-146.18;100.00;67994.34;10228238;28;20235;-69
2023/05/11 23:03:15;;;;;;;8.68;7.88;;;;;;;-146.18;100.00;67994.34;10226989;28;21299;-69
2023/05/11 23:08:11;;;;;;;9.23;8.13;;;;;;;-146.18;100.00;67994.34;10232738;28;20470;-73
2023/05/11 23:13:10;;;;;;;9.70;8.57;;;;;;;-146.18;100.00;67994.34;10236953;28;20068;-67
2023/05/11 23:18:06;;;;;;;12.50;8.27;;;;;;;-146.18;100.00;67994.34;10232493;28;20500;-67
2023/05/11 23:23:03;;;;;;;9.90;8.90;;;;;;;-146.18;100.00;67994.34;10238709;28;20045;-68
2023/05/11 23:27:59;;;;;;;9.05;8.23;;;;;;;-146.18;100.00;67994.34;10234553;28;20045;-67
2023/05/11 23:32:56;;;;;;;9.80;8.75;;;;;;;-146.18;100.00;67994.34;10240781;28;20041;-68
2023/05/11 23:37:52;;;;;;;9.18;8.27;;;;;;;-146.18;100.00;67994.34;10226768;28;20068;-67
2023/05/11 23:42:49;;;;;;;9.40;8.50;;;;;;;-146.18;100.00;67994.34;10239457;28;20073;-67
2023/05/11 23:47:45;;;;;;;11.00;8.68;;;;;;;-146.18;100.00;67994.34;10239834;28;20049;-68
2023/05/11 23:52:42;;;;;;;11.00;8.77;;;;;;;-146.18;100.00;67994.34;10233361;28;20049;-69
2023/05/11 23:57:38;;;;;;;8.75;7.95;;;;;;;-146.18;100.00;67994.34;10236603;28;20486;-69
